Time;durP1;ratioP1;P1;durP2;ratioP2;P2;SDS_P1;SDS_P2;PMS_P1;PMS_P2;Temp;Humidity;BMP_temperature;BMP_pressure;BME280_temperature;BME280_humidity;BME280_pressure;Samples;Min_cycle;Max_cycle;Signal;HPM_P1;HPM_P2
2023/03/21 00:01:15;;;;;;;;;16.25;14.50;;;;;14.11;53.51;101235.25;4999349;28;45286;-59
2023/03/21 00:03:42;;;;;;;;;19.50;17.50;;;;;14.11;53.67;101234.38;4998041;28;45517;-59
2023/03/21 00:06:10;;;;;;;;;16.50;15.75;;;;;14.08;53.35;101229.16;4999134;28;47086;-59
2023/03/21 00:08:36;;;;;;;;;18.75;16.25;;;;;14.08;53.47;101227.38;4998723;28;45354;-59
2023/03/21 00:11:04;;;;;;;;;17.00;15.75;;;;;14.09;53.00;101234.41;4998867;28;45418;-59
2023/03/21 00:13:31;;;;;;;;;19.00;13.25;;;;;14.08;53.38;101229.16;4999101;28;45446;-59
2023/03/21 00:16:02;;;;;;;;;18.00;16.00;;;;;14.08;53.09;101229.16;4998232;28;47007;-59
2023/03/21 00:18:27;;;;;;;;;15.00;13.25;;;;;14.08;53.48;101230.00;4997876;28;45474;-59
2023/03/21 00:21:04;;;;;;;;;16.75;14.50;;;;;14.08;53.15;101221.22;4998835;28;45165;-59
2023/03/21 00:23:31;;;;;;;;;13.50;13.25;;;;;14.09;52.97;101222.97;4998954;28;45215;-59
2023/03/21 00:25:56;;;;;;;;;16.75;16.75;;;;;14.08;53.26;101227.38;4998203;28;46437;-59
2023/03/21 00:28:22;;;;;;;;;21.25;18.75;;;;;14.08;53.57;101223.88;4998970;28;45354;-59
2023/03/21 00:30:48;;;;;;;;;22.50;18.50;;;;;14.06;53.41;101221.28;4998777;28;45516;-59
2023/03/21 00:33:14;;;;;;;;;19.75;17.75;;;;;14.06;53.00;101223.03;4998769;28;45459;-59
2023/03/21 00:35:46;;;;;;;;;21.00;16.25;;;;;14.07;53.16;101230.06;4998438;28;45349;-59
2023/03/21 00:38:13;;;;;;;;;19.00;18.00;;;;;14.05;53.58;101227.44;4998795;28;45417;-59
2023/03/21 00:40:38;;;;;;;;;18.00;17.50;;;;;14.04;53.07;101219.56;4998437;28;45316;-59
2023/03/21 00:43:03;;;;;;;;;19.00;15.25;;;;;14.04;53.63;101224.84;4990303;28;45425;-59
2023/03/21 00:45:29;;;;;;;;;17.00;16.50;;;;;14.02;53.36;101216.94;4993685;28;46117;-59
2023/03/21 00:47:55;;;;;;;;;16.75;15.25;;;;;13.99;53.64;101217.00;4998393;28;45322;-59
2023/03/21 00:50:21;;;;;;;;;16.25;15.50;;;;;14.00;53.17;101220.50;4999339;28;45310;-60
2023/03/21 00:52:47;;;;;;;;;19.25;17.25;;;;;13.97;53.21;101209.13;4998747;28;45177;-59
2023/03/21 00:55:15;;;;;;;;;16.50;16.25;;;;;13.96;53.58;101209.13;4997853;27;45299;-59
2023/03/21 00:57:41;;;;;;;;;16.75;15.75;;;;;13.95;53.38;101215.34;4998731;28;45208;-59
2023/03/21 01:00:11;;;;;;;;;21.75;17.75;;;;;13.93;53.20;101206.56;4998247;28;45478;-59
2023/03/21 01:02:41;;;;;;;;;14.50;14.00;;;;;13.90;53.07;101196.94;5007822;28;45299;-61
2023/03/21 01:05:09;;;;;;;;;17.25;16.75;;;;;13.88;53.49;101198.72;4999693;27;46091;-59
2023/03/21 01:07:34;;;;;;;;;18.50;15.00;;;;;13.88;53.28;101201.38;4996987;28;46156;-59
2023/03/21 01:10:00;;;;;;;;;17.50;14.00;;;;;13.85;53.66;101193.53;4997895;28;45306;-59
2023/03/21 01:12:26;;;;;;;;;19.00;13.75;;;;;13.85;53.02;101195.28;4998448;28;45365;-59
2023/03/21 01:14:51;;;;;;;;;14.50;14.50;;;;;13.84;53.12;101190.91;4998050;28;46428;-59
2023/03/21 01:17:17;;;;;;;;;14.75;14.75;;;;;13.79;53.17;101188.34;4998348;28;45251;-59
2023/03/21 01:19:42;;;;;;;;;17.50;16.75;;;;;13.80;53.33;101195.38;4998163;28;45224;-59
2023/03/21 01:22:07;;;;;;;;;14.50;14.00;;;;;13.78;53.51;101197.19;4998287;28;45310;-59
2023/03/21 01:24:33;;;;;;;;;14.75;14.25;;;;;13.76;53.19;101183.13;4997902;28;45954;-59
2023/03/21 01:27:00;;;;;;;;;11.25;11.25;;;;;13.72;53.19;101173.53;4996713;28;45169;-59
2023/03/21 01:29:25;;;;;;;;;16.00;11.50;;;;;13.71;53.15;101170.03;4998077;28;45388;-59
2023/03/21 01:31:50;;;;;;;;;15.75;12.75;;;;;13.69;53.31;101176.25;4998007;28;45464;-59
2023/03/21 01:34:16;;;;;;;;;13.00;12.00;;;;;13.68;53.38;101163.94;4997887;28;45242;-59
2023/03/21 01:36:41;;;;;;;;;12.75;11.25;;;;;13.66;53.10;101161.34;4997397;28;54341;-59
2023/03/21 01:39:07;;;;;;;;;16.50;12.00;;;;;13.64;53.03;101169.25;5013135;28;45146;-59
2023/03/21 01:41:36;;;;;;;;;11.50;11.00;;;;;13.63;53.31;101169.31;4997736;28;45419;-59
2023/03/21 01:44:03;;;;;;;;;14.25;13.75;;;;;13.62;53.02;101168.44;4984636;28;46931;-59
2023/03/21 01:46:33;;;;;;;;;13.50;13.00;;;;;13.61;52.91;101174.63;4997817;28;45390;-59
2023/03/21 01:49:03;;;;;;;;;14.75;10.75;;;;;13.62;53.13;101178.13;4997606;28;45267;-59
2023/03/21 01:51:33;;;;;;;;;12.75;10.75;;;;;13.59;53.23;101171.13;4997880;28;45371;-59
2023/03/21 01:54:00;;;;;;;;;10.25;9.50;;;;;13.57;53.36;101172.94;4997492;28;45491;-59
2023/03/21 01:56:30;;;;;;;;;11.75;9.50;;;;;13.52;53.28;101174.81;4997593;27;45361;-59
2023/03/21 01:59:04;;;;;;;;;10.00;9.00;;;;;13.52;53.47;101169.53;4997714;28;45311;-59
2023/03/21 02:01:30;;;;;;;;;14.25;11.75;;;;;13.51;53.04;101172.19;4997685;28;45250;-59
2023/03/21 02:03:56;;;;;;;;;10.25;10.25;;;;;13.47;53.04;101169.63;4996669;28;45312;-59
2023/03/21 02:06:48;;;;;;;;;14.25;11.25;;;;;13.47;53.23;101166.09;4997445;28;45224;-59
2023/03/21 02:09:17;;;;;;;;;8.75;8.75;;;;;13.43;53.14;101159.13;4997647;28;45437;-59
2023/03/21 02:11:45;;;;;;;;;9.00;8.25;;;;;13.41;53.23;101155.66;4997227;28;45364;-59
2023/03/21 02:14:14;;;;;;;;;11.75;10.25;;;;;13.41;53.00;101147.72;4997462;28;46103;-59
2023/03/21 02:16:45;;;;;;;;;9.50;8.00;;;;;13.39;52.79;101146.91;4997376;28;45238;-59
2023/03/21 02:19:46;;;;;;;;;11.50;8.75;;;;;13.37;52.88;101149.56;4997313;28;45321;-59
2023/03/21 02:22:21;;;;;;;;;10.25;9.75;;;;;13.33;53.15;101146.09;4996363;28;46462;-59
2023/03/21 02:24:46;;;;;;;;;1.00;1.00;;;;;13.32;52.96;101141.72;4997132;28;45365;-59
2023/03/21 02:27:17;;;;;;;;;9.50;8.25;;;;;13.30;52.70;101140.00;4997125;28;45357;-59
2023/03/21 02:30:05;;;;;;;;;11.50;9.00;;;;;13.29;52.88;101131.19;4984803;28;45215;-59
2023/03/21 02:33:03;;;;;;;;;11.50;7.25;;;;;13.20;53.01;101119.97;4997228;28;45262;-59
2023/03/21 02:35:56;;;;;;;;;7.50;6.25;;;;;13.23;52.75;101126.06;4997168;28;45326;-59
2023/03/21 02:38:40;;;;;;;;;10.00;9.00;;;;;13.19;52.88;101124.34;4996857;28;45491;-59
2023/03/21 02:41:17;;;;;;;;;8.00;5.75;;;;;13.18;52.62;101117.34;4984835;28;45371;-59
2023/03/21 02:43:52;;;;;;;;;5.25;5.25;;;;;13.17;52.84;101110.34;4982469;28;45703;-59
2023/03/21 02:46:42;;;;;;;;;7.50;7.25;;;;;13.15;52.51;101114.75;4997055;28;46187;-59
2023/03/21 02:49:21;;;;;;;;;9.00;6.00;;;;;13.12;52.64;101107.78;4996842;28;45313;-59
2023/03/21 02:51:49;;;;;;;;;6.50;4.50;;;;;13.12;52.43;101107.78;4997093;28;45215;-59
2023/03/21 02:54:19;;;;;;;;;9.25;6.50;;;;;13.10;52.83;101112.19;4996772;28;45419;-59
2023/03/21 02:56:47;;;;;;;;;5.25;5.25;;;;;13.11;52.95;101105.19;4996504;28;46216;-59
2023/03/21 02:59:15;;;;;;;;;5.25;5.25;;;;;13.10;52.54;101101.66;4996990;28;45348;-59
2023/03/21 03:01:40;;;;;;;;;6.00;6.00;;;;;13.10;52.80;101101.66;4996948;28;45334;-59
2023/03/21 03:04:23;;;;;;;;;7.50;7.50;;;;;13.07;52.55;101101.72;4995748;28;45310;-59
2023/03/21 03:06:55;;;;;;;;;3.75;3.75;;;;;13.07;52.39;101104.38;4996495;28;47157;-59
2023/03/21 03:09:49;;;;;;;;;6.25;5.00;;;;;13.05;52.38;101105.28;4996684;28;45287;-59
2023/03/21 03:12:36;;;;;;;;;5.75;5.75;;;;;13.04;52.48;101104.41;4986160;28;45249;-59
2023/03/21 03:15:34;;;;;;;;;6.75;5.75;;;;;13.02;52.64;101103.56;4996515;28;45376;-59
2023/03/21 03:18:52;;;;;;;;;10.50;9.00;;;;;13.00;52.43;101106.25;4996272;28;47334;-59
2023/03/21 03:21:30;;;;;;;;;6.00;5.25;;;;;12.99;52.26;101109.78;4971589;28;45364;-59
2023/03/21 03:24:10;;;;;;;;;6.75;5.50;;;;;12.96;52.51;101107.19;4996713;28;45250;-59
2023/03/21 03:26:44;;;;;;;;;5.75;5.50;;;;;12.97;52.40;101097.53;4984057;28;45411;-59
2023/03/21 03:29:15;;;;;;;;;6.25;4.00;;;;;12.95;52.25;101089.63;4996158;28;47169;-59
2023/03/21 03:31:46;;;;;;;;;6.75;6.75;;;;;12.93;52.71;101087.91;4996491;28;45253;-59
2023/03/21 03:34:19;;;;;;;;;6.25;6.00;;;;;12.91;52.08;101089.72;5011143;28;45541;-59
2023/03/21 03:36:50;;;;;;;;;5.25;5.00;;;;;12.91;52.19;101087.94;4996352;28;45410;-59
2023/03/21 03:39:17;;;;;;;;;5.25;5.25;;;;;12.89;52.20;101083.59;4995876;28;46184;-59
2023/03/21 03:41:56;;;;;;;;;6.75;6.50;;;;;12.86;52.46;101081.88;4996136;28;45327;-59
2023/03/21 03:44:22;;;;;;;;;7.00;6.00;;;;;12.88;52.18;101084.47;4982186;28;45445;-59
2023/03/21 03:46:55;;;;;;;;;5.75;5.00;;;;;12.86;52.20;101086.31;4996077;28;45202;-59
2023/03/21 03:49:26;;;;;;;;;7.25;5.75;;;;;12.78;52.27;101075.88;4982984;28;45442;-59
2023/03/21 03:51:58;;;;;;;;;8.25;5.75;;;;;12.79;52.13;101080.25;4998813;28;45255;-59
2023/03/21 03:54:31;;;;;;;;;7.75;5.00;;;;;12.79;52.24;101083.78;4999304;28;45294;-59
2023/03/21 03:56:57;;;;;;;;;5.00;5.00;;;;;12.79;52.18;101086.41;4998900;28;45441;-59
2023/03/21 03:59:23;;;;;;;;;7.50;6.75;;;;;12.78;52.01;101089.03;4999162;28;46326;-59
2023/03/21 04:01:49;;;;;;;;;8.00;5.25;;;;;12.77;52.28;101079.41;4999138;28;45323;-59
2023/03/21 04:04:15;;;;;;;;;7.25;6.00;;;;;12.74;52.09;101083.00;4998066;27;45326;-59
2023/03/21 04:06:44;;;;;;;;;6.00;5.25;;;;;12.72;52.22;101073.38;4998913;28;45461;-59
2023/03/21 04:09:10;;;;;;;;;6.75;5.00;;;;;12.73;52.17;101073.34;4998799;28;47003;-59
2023/03/21 04:11:35;;;;;;;;;5.75;5.75;;;;;12.71;52.11;101077.75;4998797;28;45349;-59
2023/03/21 04:14:01;;;;;;;;;7.00;7.00;;;;;12.67;52.03;101076.94;4999163;28;45482;-58
2023/03/21 04:16:27;;;;;;;;;6.75;6.00;;;;;12.67;52.22;101087.47;4999053;28;45477;-61
2023/03/21 04:18:53;;;;;;;;;5.75;4.75;;;;;12.66;52.29;101084.88;4998831;28;46183;-59
2023/03/21 04:21:20;;;;;;;;;5.00;4.00;;;;;12.65;52.08;101097.19;4999079;28;45281;-59
2023/03/21 04:23:45;;;;;;;;;5.75;5.75;;;;;12.66;52.22;101090.16;4999260;28;45429;-60
2023/03/21 04:26:11;;;;;;;;;7.00;5.25;;;;;12.66;52.38;101088.38;4998378;28;45133;-59
2023/03/21 04:28:36;;;;;;;;;7.50;6.75;;;;;12.63;52.37;101083.16;4998787;28;50714;-59
2023/03/21 04:31:04;;;;;;;;;9.75;7.75;;;;;12.64;52.14;101084.91;4998742;28;46386;-59
2023/03/21 04:33:30;;;;;;;;;7.75;6.50;;;;;12.63;52.16;101091.06;4999142;28;45320;-60
2023/03/21 04:35:57;;;;;;;;;6.25;6.25;;;;;12.61;52.23;101095.50;4998591;28;45628;-59
2023/03/21 04:38:29;;;;;;;;;9.50;7.00;;;;;12.59;52.33;101092.03;4998935;28;45239;-59
2023/03/21 04:40:58;;;;;;;;;6.00;5.75;;;;;12.59;52.25;101092.03;4998106;28;45326;-59
2023/03/21 04:43:24;;;;;;;;;8.00;6.75;;;;;12.57;52.07;101092.94;4987697;27;45340;-59
2023/03/21 04:45:50;;;;;;;;;7.00;6.00;;;;;12.58;52.07;101089.41;4996475;28;45532;-59
2023/03/21 04:48:18;;;;;;;;;8.25;7.00;;;;;12.57;52.09;101085.03;5013822;28;48005;-59
2023/03/21 04:50:44;;;;;;;;;6.50;6.25;;;;;12.56;52.14;101085.94;4998431;28;45343;-59
2023/03/21 04:53:09;;;;;;;;;7.50;6.25;;;;;12.55;52.32;101087.69;4998738;28;45321;-59
2023/03/21 04:55:35;;;;;;;;;7.25;7.25;;;;;12.54;52.33;101088.59;4998041;28;45292;-59
2023/03/21 04:58:04;;;;;;;;;7.00;5.25;;;;;12.55;52.09;101086.81;5013803;28;48241;-59
2023/03/21 05:00:29;;;;;;;;;6.00;5.00;;;;;12.54;52.29;101072.78;4998225;28;45302;-59
2023/03/21 05:02:56;;;;;;;;;7.00;5.00;;;;;12.53;52.05;101086.84;4998510;28;45230;-60
2023/03/21 05:05:22;;;;;;;;;8.00;6.50;;;;;12.54;52.24;101085.06;4997453;28;45391;-60
2023/03/21 05:07:47;;;;;;;;;10.00;7.00;;;;;12.55;51.99;101084.19;4998235;28;45440;-60
2023/03/21 05:10:12;;;;;;;;;7.50;7.50;;;;;12.54;52.16;101093.88;4997961;28;45311;-60
2023/03/21 05:12:38;;;;;;;;;10.25;6.00;;;;;12.52;52.25;101088.59;5013769;28;45425;-60
2023/03/21 05:15:05;;;;;;;;;10.50;9.50;;;;;12.53;52.09;101086.84;4998189;28;45537;-60
2023/03/21 05:17:30;;;;;;;;;6.75;6.25;;;;;12.52;52.13;101078.06;4998348;28;46105;-60
2023/03/21 05:19:55;;;;;;;;;20.50;18.00;;;;;12.49;52.53;101077.25;4998057;28;45304;-60
2023/03/21 05:22:23;;;;;;;;;6.00;5.50;;;;;12.51;52.35;101081.63;4998504;28;45318;-60
2023/03/21 05:24:49;;;;;;;;;8.25;6.00;;;;;12.49;52.17;101075.50;4997925;28;45469;-60
2023/03/21 05:27:33;;;;;;;;;7.75;7.25;;;;;12.50;52.48;101071.97;4997991;28;45287;-60
2023/03/21 05:30:00;;;;;;;;;9.00;8.25;;;;;12.50;52.47;101068.44;4998192;28;45311;-59
2023/03/21 05:32:26;;;;;;;;;7.00;5.00;;;;;12.48;52.44;101071.09;4998160;28;45389;-60
2023/03/21 05:34:51;;;;;;;;;5.75;5.75;;;;;12.48;52.49;101064.97;4998138;28;45304;-60
2023/03/21 05:37:17;;;;;;;;;7.50;7.00;;;;;12.48;52.49;101072.88;4998016;28;46275;-60
2023/03/21 05:39:42;;;;;;;;;7.00;6.00;;;;;12.46;52.47;101072.88;4997807;28;47157;-60
2023/03/21 05:42:07;;;;;;;;;8.00;6.25;;;;;12.45;52.54;101071.19;4997376;28;45342;-60
2023/03/21 05:44:32;;;;;;;;;11.00;7.25;;;;;12.39;52.61;101066.00;4985611;28;45454;-60
2023/03/21 05:46:58;;;;;;;;;7.25;6.00;;;;;12.47;52.63;101079.03;4997780;28;45551;-60
2023/03/21 05:49:23;;;;;;;;;8.25;7.50;;;;;12.43;52.35;101074.72;4997669;28;45266;-60
2023/03/21 05:51:50;;;;;;;;;8.25;8.25;;;;;12.44;52.45;101079.97;4997930;28;45243;-60
2023/03/21 05:54:15;;;;;;;;;6.50;6.50;;;;;12.43;52.67;101082.63;4997810;28;45310;-60
2023/03/21 05:56:41;;;;;;;;;8.25;7.25;;;;;12.41;52.64;101087.06;4997397;28;47134;-60
2023/03/21 05:59:07;;;;;;;;;9.00;7.75;;;;;12.41;52.68;101084.41;4997269;28;45271;-60
2023/03/21 06:01:32;;;;;;;;;9.50;7.25;;;;;12.41;52.58;101089.69;4997866;28;45472;-60
2023/03/21 06:03:57;;;;;;;;;7.00;6.75;;;;;12.39;52.75;101080.94;4996180;28;45231;-61
2023/03/21 06:06:22;;;;;;;;;9.50;7.25;;;;;12.38;52.85;101079.19;4996787;28;45408;-60
2023/03/21 06:08:48;;;;;;;;;5.75;5.75;;;;;12.30;52.74;101068.78;4997146;28;45227;-60
2023/03/21 06:11:26;;;;;;;;;8.50;8.50;;;;;12.34;52.83;101073.97;4995982;28;45223;-60
2023/03/21 06:13:52;;;;;;;;;9.25;6.75;;;;;12.32;53.03;101075.75;4996341;28;45371;-61
2023/03/21 06:16:17;;;;;;;;;10.00;9.25;;;;;12.33;53.03;101079.28;4996774;28;46534;-61
2023/03/21 06:18:43;;;;;;;;;9.00;9.00;;;;;12.32;53.03;101080.16;4997410;28;45367;-61
2023/03/21 06:21:08;;;;;;;;;8.00;6.25;;;;;12.31;53.02;101076.66;4997511;28;45462;-61
2023/03/21 06:23:33;;;;;;;;;9.00;8.25;;;;;12.30;53.15;101082.84;4997460;28;45386;-61
2023/03/21 06:25:59;;;;;;;;;10.00;10.00;;;;;12.30;52.99;101079.31;4996914;28;45742;-60
2023/03/21 06:28:24;;;;;;;;;9.00;7.75;;;;;12.28;53.19;101073.22;5005029;28;45333;-60
2023/03/21 06:30:51;;;;;;;;;9.00;8.50;;;;;12.27;53.13;101096.03;5001468;28;45280;-60
2023/03/21 06:33:16;;;;;;;;;10.50;9.75;;;;;12.28;52.98;101091.66;4997667;28;45253;-61
2023/03/21 06:35:41;;;;;;;;;11.75;9.50;;;;;12.24;53.07;101088.19;4997097;28;45252;-60
2023/03/21 06:38:07;;;;;;;;;9.75;9.75;;;;;12.20;53.37;101075.97;4995848;28;52203;-60
2023/03/21 06:40:32;;;;;;;;;11.00;10.00;;;;;12.19;53.37;101066.31;4996860;28;45512;-60
2023/03/21 06:42:57;;;;;;;;;10.00;8.75;;;;;12.18;53.49;101070.69;4989252;28;58677;-60
2023/03/21 06:45:24;;;;;;;;;11.50;9.00;;;;;12.16;53.59;101076.88;5000944;28;45460;-60
2023/03/21 06:47:49;;;;;;;;;10.75;9.00;;;;;12.15;53.42;101070.75;5011731;28;45313;-59
2023/03/21 06:50:15;;;;;;;;;8.00;8.00;;;;;12.12;53.52;101069.94;4997041;28;45239;-59
2023/03/21 06:52:40;;;;;;;;;12.50;10.75;;;;;12.09;53.73;101062.06;4996928;28;45422;-60
2023/03/21 06:55:06;;;;;;;;;12.25;11.00;;;;;12.08;53.51;101063.84;4996349;28;47951;-59
2023/03/21 06:57:31;;;;;;;;;10.50;10.00;;;;;12.07;53.66;101066.50;4996949;28;45267;-59
2023/03/21 06:59:57;;;;;;;;;12.00;10.00;;;;;12.05;53.60;101053.38;4996789;28;45549;-60
2023/03/21 07:02:22;;;;;;;;;7.75;5.75;;;;;12.03;53.73;101056.00;4996714;28;50335;-61
2023/03/21 07:04:48;;;;;;;;;12.75;12.00;;;;;12.02;53.53;101054.28;4995653;28;49759;-61
2023/03/21 07:07:13;;;;;;;;;11.25;7.25;;;;;11.99;53.73;101048.19;4996653;28;45347;-58
2023/03/21 07:09:39;;;;;;;;;13.25;11.25;;;;;11.96;53.74;101049.09;4996112;28;45298;-58
2023/03/21 07:12:05;;;;;;;;;9.50;9.00;;;;;11.96;53.75;101042.94;4995227;28;45481;-58
2023/03/21 07:14:30;;;;;;;;;7.50;7.25;;;;;11.91;53.72;101032.47;4995135;28;46294;-58
2023/03/21 07:16:56;;;;;;;;;9.00;8.25;;;;;11.93;53.63;101035.94;4995948;28;45340;-58
2023/03/21 07:19:22;;;;;;;;;13.00;12.00;;;;;11.89;53.73;101034.25;5011336;27;45725;-58
2023/03/21 07:21:47;;;;;;;;;13.00;12.50;;;;;11.88;53.85;101032.50;4996069;28;45563;-59
2023/03/21 07:24:12;;;;;;;;;12.75;12.00;;;;;11.91;53.78;101042.13;4995695;27;45498;-59
2023/03/21 07:26:38;;;;;;;;;13.50;13.50;;;;;11.90;53.55;101045.66;4997398;28;45364;-59
2023/03/21 07:29:03;;;;;;;;;13.00;11.75;;;;;11.90;53.98;101043.91;4997963;27;45351;-59
2023/03/21 07:31:28;;;;;;;;;10.25;9.00;;;;;11.89;53.93;101036.88;4998243;28;45342;-59
2023/03/21 07:33:54;;;;;;;;;13.00;11.00;;;;;11.90;53.89;101043.00;4999202;28;45375;-59
2023/03/21 07:36:20;;;;;;;;;11.00;10.50;;;;;11.88;54.12;101053.56;5014895;28;45305;-59
2023/03/21 07:38:45;;;;;;;;;13.00;11.75;;;;;11.85;54.20;101046.59;4999419;28;45230;-59
2023/03/21 07:41:11;;;;;;;;;13.00;12.25;;;;;11.86;54.24;101047.44;4997301;27;49626;-59
2023/03/21 07:43:37;;;;;;;;;10.00;10.00;;;;;11.86;54.22;101042.19;4992836;28;46329;-59
2023/03/21 07:46:03;;;;;;;;;12.25;11.00;;;;;11.86;54.25;101045.69;4998432;27;45932;-59
2023/03/21 07:48:29;;;;;;;;;13.75;12.75;;;;;11.85;54.15;101045.72;4999398;28;45336;-59
2023/03/21 07:50:54;;;;;;;;;12.25;12.00;;;;;11.85;54.32;101045.72;4999108;28;45763;-59
2023/03/21 07:53:20;;;;;;;;;11.00;11.00;;;;;11.83;54.38;101037.81;4998874;28;46286;-59
2023/03/21 07:55:49;;;;;;;;;16.25;13.75;;;;;11.80;54.49;101039.66;4996651;27;45502;-59
2023/03/21 07:58:14;;;;;;;;;15.75;13.00;;;;;11.81;54.42;101029.09;4999213;28;45417;-59
2023/03/21 08:00:41;;;;;;;;;14.50;13.00;;;;;11.81;54.53;101028.22;4998847;28;45494;-59
2023/03/21 08:03:06;;;;;;;;;14.75;12.50;;;;;11.80;54.49;101023.88;4997220;27;46227;-59
2023/03/21 08:05:36;;;;;;;;;15.75;14.00;;;;;11.84;54.45;101017.66;4999213;27;45476;-59
2023/03/21 08:08:02;;;;;;;;;15.25;12.50;;;;;11.83;54.52;101015.91;4999043;28;45332;-59
2023/03/21 08:10:28;;;;;;;;;16.50;13.50;;;;;11.86;54.67;101007.94;5014018;28;45470;-59
2023/03/21 08:12:53;;;;;;;;;14.25;13.50;;;;;11.87;54.56;101029.00;4998731;28;46066;-59
2023/03/21 08:15:20;;;;;;;;;15.75;12.75;;;;;11.86;54.51;101021.13;4999232;28;45313;-59
2023/03/21 08:17:46;;;;;;;;;19.00;18.00;;;;;11.89;54.60;101017.59;4999032;28;45252;-59
2023/03/21 08:20:14;;;;;;;;;18.25;18.25;;;;;11.92;54.63;101028.06;4998962;28;45319;-59
2023/03/21 08:22:40;;;;;;;;;15.50;13.75;;;;;11.92;54.97;101044.72;4998799;28;46177;-59
2023/03/21 08:25:07;;;;;;;;;15.00;15.00;;;;;11.93;54.72;101059.63;4998396;28;45393;-59
2023/03/21 08:27:33;;;;;;;;;9.50;8.75;;;;;11.94;54.69;101061.38;5014077;28;45464;-59
2023/03/21 08:29:59;;;;;;;;;14.25;13.00;;;;;11.95;54.79;101057.88;4998665;28;45232;-59
2023/03/21 08:32:28;;;;;;;;;15.50;14.00;;;;;12.00;54.87;101073.63;4998507;28;46466;-59
2023/03/21 08:34:58;;;;;;;;;16.25;14.25;;;;;12.02;54.97;101074.47;4998749;28;45485;-58
2023/03/21 08:37:24;;;;;;;;;14.25;14.25;;;;;12.03;54.83;101077.06;4996911;28;45324;-59
2023/03/21 08:39:50;;;;;;;;;13.50;12.00;;;;;12.03;54.84;101077.06;4998587;28;45453;-58
2023/03/21 08:42:15;;;;;;;;;13.00;12.50;;;;;12.03;54.64;101065.69;4996590;27;46927;-59
2023/03/21 08:44:41;;;;;;;;;15.50;14.25;;;;;12.02;54.84;101063.94;4987386;28;45319;-59
2023/03/21 08:47:07;;;;;;;;;13.50;12.00;;;;;12.05;54.86;101070.91;4998567;28;45286;-59
2023/03/21 08:49:34;;;;;;;;;11.75;10.75;;;;;12.03;54.74;101056.00;4998456;28;45318;-59
2023/03/21 08:51:59;;;;;;;;;14.50;13.25;;;;;12.03;55.23;101040.19;4998644;28;46251;-58
2023/03/21 08:54:24;;;;;;;;;11.00;10.50;;;;;12.03;54.90;101028.81;4998383;28;45276;-59
2023/03/21 08:56:50;;;;;;;;;11.50;10.50;;;;;12.03;54.87;101013.84;4998241;28;45804;-58
2023/03/21 08:59:15;;;;;;;;;12.50;11.50;;;;;12.00;55.07;101003.38;4998534;28;45270;-59
2023/03/21 09:01:41;;;;;;;;;9.00;9.00;;;;;12.09;55.08;101044.50;4998448;28;45447;-58
2023/03/21 09:04:09;;;;;;;;;18.00;17.00;;;;;12.13;55.11;101050.59;4997277;27;45316;-59
2023/03/21 09:06:35;;;;;;;;;16.25;12.25;;;;;12.15;55.00;101048.81;4998497;28;45162;-59
2023/03/21 09:09:01;;;;;;;;;14.00;9.75;;;;;12.22;55.19;101058.34;4998168;28;45328;-59
2023/03/21 09:11:26;;;;;;;;;14.75;14.00;;;;;12.28;55.00;101071.44;5013164;28;46822;-59
2023/03/21 09:13:51;;;;;;;;;14.75;14.00;;;;;12.33;55.11;101061.69;4998347;28;45260;-58
2023/03/21 09:16:17;;;;;;;;;8.75;7.75;;;;;12.38;55.16;101059.00;4998402;28;45371;-59
2023/03/21 09:18:49;;;;;;;;;12.50;11.00;;;;;12.44;55.13;101066.78;4998440;28;45302;-59
2023/03/21 09:21:17;;;;;;;;;14.00;12.00;;;;;12.53;55.16;101068.41;4998078;28;46052;-59
2023/03/21 09:23:45;;;;;;;;;18.50;14.75;;;;;12.61;55.02;101084.94;4998351;28;45282;-59
2023/03/21 09:26:12;;;;;;;;;16.75;14.75;;;;;12.67;55.18;101066.38;4997784;28;45280;-59
2023/03/21 09:28:38;;;;;;;;;12.25;11.00;;;;;12.74;55.21;101061.88;4997859;28;45270;-59
2023/03/21 09:31:05;;;;;;;;;12.75;12.75;;;;;12.81;55.18;101054.72;4997782;28;46008;-59
2023/03/21 09:33:31;;;;;;;;;13.50;12.50;;;;;12.88;55.17;101066.03;4998185;28;45256;-59
2023/03/21 09:35:59;;;;;;;;;6.00;4.75;;;;;12.94;54.96;101066.78;4998002;28;45322;-59
2023/03/21 09:38:29;;;;;;;;;11.00;11.00;;;;;12.98;55.47;101057.03;4998053;28;45442;-59
2023/03/21 09:41:16;;;;;;;;;12.00;11.00;;;;;13.07;55.62;101062.16;4997309;28;46449;-59
2023/03/21 09:43:51;;;;;;;;;10.00;9.75;;;;;13.15;55.33;101072.53;4984668;28;45396;-59
2023/03/21 09:47:16;;;;;;;;;12.25;12.25;;;;;13.25;55.47;101071.47;4998109;28;45322;-59
2023/03/21 09:49:48;;;;;;;;;10.75;9.25;;;;;13.33;55.24;101073.94;4937173;28;45496;-59
2023/03/21 09:52:48;;;;;;;;;12.75;11.25;;;;;13.43;55.50;101077.28;4937096;28;46313;-59
2023/03/21 09:55:25;;;;;;;;;13.25;11.00;;;;;13.52;55.38;101079.75;4919670;28;45386;-59
2023/03/21 09:57:56;;;;;;;;;12.50;11.50;;;;;13.60;55.36;101067.25;4998081;28;45378;-59
2023/03/21 10:00:29;;;;;;;;;10.00;9.25;;;;;13.63;55.63;101059.28;4997633;28;45467;-59
2023/03/21 10:03:00;;;;;;;;;9.00;9.00;;;;;13.74;55.66;101061.66;5012717;28;48516;-59
2023/03/21 10:05:31;;;;;;;;;9.00;9.00;;;;;13.82;55.61;101053.56;4997078;27;45376;-59
2023/03/21 10:08:26;;;;;;;;;9.25;7.00;;;;;13.93;55.12;101061.25;4997640;28;45256;-59
2023/03/21 10:10:55;;;;;;;;;11.50;10.25;;;;;14.01;55.25;101066.34;4997447;28;46532;-59
2023/03/21 10:13:32;;;;;;;;;9.00;8.00;;;;;14.06;55.77;101059.19;4997325;28;45300;-59
2023/03/21 10:16:10;;;;;;;;;13.50;10.00;;;;;14.10;55.13;101055.56;4997576;28;45300;-59
2023/03/21 10:18:36;;;;;;;;;12.50;10.00;;;;;14.15;55.20;101048.41;4985918;27;45303;-59
2023/03/21 10:21:04;;;;;;;;;12.50;9.00;;;;;14.20;55.07;101058.84;4997395;27;45314;-59
2023/03/21 10:23:29;;;;;;;;;14.75;10.75;;;;;14.25;55.26;101076.34;4997368;28;46397;-59
2023/03/21 10:25:58;;;;;;;;;10.25;9.00;;;;;14.30;55.33;101074.47;4996992;28;45430;-60
2023/03/21 10:28:27;;;;;;;;;8.50;8.00;;;;;14.34;55.46;101069.97;4997402;28;45188;-59
2023/03/21 10:30:59;;;;;;;;;5.75;5.75;;;;;14.39;54.89;101080.41;4995962;28;45608;-59
2023/03/21 10:33:28;;;;;;;;;7.25;7.25;;;;;14.40;55.49;101075.13;4997256;28;45274;-59
2023/03/21 10:36:16;;;;;;;;;11.25;8.00;;;;;14.42;54.90;101069.78;4997149;28;45391;-59
2023/03/21 10:38:46;;;;;;;;;7.75;7.00;;;;;14.44;55.03;101067.97;4997055;28;45251;-59
2023/03/21 10:41:12;;;;;;;;;8.25;7.75;;;;;14.41;55.46;101052.19;4996888;28;45289;-59
2023/03/21 10:43:39;;;;;;;;;11.00;8.00;;;;;14.52;54.85;101065.13;4983996;28;46780;-59
2023/03/21 10:46:15;;;;;;;;;9.75;8.75;;;;;14.55;54.84;101065.94;4997065;28;45306;-59
2023/03/21 10:48:45;;;;;;;;;9.00;9.00;;;;;14.58;54.89;101068.47;4996917;28;45299;-59
2023/03/21 10:51:17;;;;;;;;;6.25;6.25;;;;;14.61;54.99;101057.81;4995782;28;45639;-59
2023/03/21 10:54:07;;;;;;;;;9.00;9.00;;;;;14.62;55.39;101054.25;4996903;28;45695;-60
2023/03/21 10:56:39;;;;;;;;;9.75;9.25;;;;;14.71;55.36;101050.53;4989917;27;45367;-59
2023/03/21 10:59:08;;;;;;;;;9.00;8.00;;;;;14.77;55.29;101054.81;4985478;28;45224;-59
2023/03/21 11:01:50;;;;;;;;;10.25;10.25;;;;;14.88;55.20;101062.44;4999950;28;45346;-59
2023/03/21 11:04:21;;;;;;;;;8.00;8.00;;;;;14.95;55.27;101056.97;4998873;27;46143;-60
2023/03/21 11:06:53;;;;;;;;;9.50;9.00;;;;;15.07;55.30;101057.53;4999610;27;45454;-60
2023/03/21 11:09:24;;;;;;;;;10.25;9.50;;;;;15.18;55.34;101051.94;4999910;28;45329;-59
2023/03/21 11:12:01;;;;;;;;;5.75;5.75;;;;;15.33;55.13;101051.47;4999804;28;45173;-60
2023/03/21 11:14:39;;;;;;;;;4.50;4.50;;;;;15.51;55.25;101049.19;4999675;28;46292;-60
2023/03/21 11:17:17;;;;;;;;;6.25;5.25;;;;;15.69;55.31;101051.31;4999763;28;45364;-60
2023/03/21 11:19:51;;;;;;;;;6.00;6.00;;;;;15.86;55.49;101042.88;4999692;28;45445;-60
2023/03/21 11:22:21;;;;;;;;;9.25;7.00;;;;;16.03;55.20;101044.13;4999671;28;45477;-60
2023/03/21 11:25:08;;;;;;;;;6.25;6.00;;;;;16.18;55.79;101033.00;4999099;28;45321;-60
2023/03/21 11:27:34;;;;;;;;;9.50;7.00;;;;;16.31;55.62;101035.25;4999402;28;45530;-60